Time;durP1;ratioP1;P1;durP2;ratioP2;P2;SDS_P1;SDS_P2;PMS_P1;PMS_P2;Temp;Humidity;BMP_temperature;BMP_pressure;BME280_temperature;BME280_humidity;BME280_pressure;Samples;Min_cycle;Max_cycle;Signal;HPM_P1;HPM_P2
2022/01/01 00:02:22;;;;;;;;;;;;;;;15.06;100.00;99065.41;5074311;28;20011;-75
2022/01/01 00:05:02;;;;;;;;;;;;;;;14.81;100.00;99059.03;5075970;28;19963;-75
2022/01/01 00:07:30;;;;;;;;;;;;;;;14.91;100.00;99055.09;5094074;28;20302;-74
2022/01/01 00:10:02;;;;;;;;;;;;;;;14.57;100.00;99040.97;5075836;28;20023;-75
2022/01/01 00:12:30;;;;;;;;;;;;;;;15.01;100.00;99035.03;5094435;28;19931;-75
2022/01/01 00:14:57;;;;;;;;;;;;;;;14.65;100.00;99034.63;5093917;28;20001;-75
2022/01/01 00:17:27;;;;;;;;;;;;;;;14.71;100.00;99032.84;5093915;28;19964;-75
2022/01/01 00:19:54;;;;;;;;;;;;;;;14.63;100.00;99025.09;5075743;28;19924;-75
2022/01/01 00:22:21;;;;;;;;;;;;;;;14.82;100.00;99041.72;5059427;28;20436;-75
2022/01/01 00:24:48;;;;;;;;;;;;;;;14.99;100.00;99017.84;5059825;28;19930;-76
2022/01/01 00:27:18;;;;;;;;;;;;;;;15.17;100.00;99020.03;5094342;28;19946;-75
2022/01/01 00:29:46;;;;;;;;;;;;;;;15.09;100.00;99025.09;5076436;28;20009;-75
2022/01/01 00:32:13;;;;;;;;;;;;;;;14.90;100.00;99006.50;5076119;28;19930;-75
2022/01/01 00:34:40;;;;;;;;;;;;;;;14.96;100.00;99004.66;5076196;28;19930;-75
2022/01/01 00:37:08;;;;;;;;;;;;;;;15.22;100.00;98997.69;5094270;28;19967;-75
2022/01/01 00:39:35;;;;;;;;;;;;;;;14.90;100.00;98995.25;5075998;28;19985;-75
2022/01/01 00:42:02;;;;;;;;;;;;;;;15.23;100.00;99001.31;5073775;28;19932;-83
2022/01/01 00:44:32;;;;;;;;;;;;;;;15.19;100.00;98995.78;5056868;28;19924;-75
2022/01/01 00:47:00;;;;;;;;;;;;;;;14.96;100.00;99004.66;5075246;28;19977;-75
2022/01/01 00:49:27;;;;;;;;;;;;;;;15.13;100.00;99006.06;5075471;28;19931;-75
2022/01/01 00:51:54;;;;;;;;;;;;;;;15.31;100.00;98994.97;5093398;28;19924;-75
2022/01/01 00:54:21;;;;;;;;;;;;;;;15.29;100.00;98999.47;5092877;28;19924;-75
2022/01/01 00:56:49;;;;;;;;;;;;;;;15.30;100.00;98989.78;5075314;28;19924;-75
2022/01/01 00:59:15;;;;;;;;;;;;;;;15.09;100.00;98985.72;5075386;28;20006;-75
2022/01/01 01:01:42;;;;;;;;;;;;;;;14.86;100.00;98999.41;5093544;28;19928;-75
2022/01/01 01:04:13;;;;;;;;;;;;;;;14.71;100.00;98985.03;5093350;28;19956;-75
2022/01/01 01:06:40;;;;;;;;;;;;;;;15.11;100.00;98994.50;5075390;28;19925;-75
2022/01/01 01:09:07;;;;;;;;;;;;;;;15.22;100.00;98982.84;5093156;28;19924;-75
2022/01/01 01:11:41;;;;;;;;;;;;;;;15.10;100.00;98981.66;5075177;28;20442;-75
2022/01/01 01:14:18;;;;;;;;;;;;;;;14.94;100.00;98973.38;5058809;28;19924;-75
2022/01/01 01:16:46;;;;;;;;;;;;;;;15.05;100.00;98978.63;5075384;28;19924;-75
2022/01/01 01:19:13;;;;;;;;;;;;;;;15.02;100.00;98974.72;5093701;28;19924;-75
2022/01/01 01:21:40;;;;;;;;;;;;;;;15.13;100.00;98972.28;5058888;28;20432;-75
2022/01/01 01:24:07;;;;;;;;;;;;;;;15.13;100.00;98986.38;5075781;28;19931;-75
2022/01/01 01:26:47;;;;;;;;;;;;;;;15.22;100.00;98989.25;5058897;28;20374;-75
2022/01/01 01:29:14;;;;;;;;;;;;;;;15.08;100.00;98972.91;5093660;28;19924;-75
2022/01/01 01:34:07;;;;;;;;;;;;;;;15.45;100.00;98959.94;5111650;27;19984;-78
2022/01/01 01:36:34;;;;;;;;;;;;;;;15.30;100.00;98956.81;5108671;28;19977;-78
2022/01/01 01:39:02;;;;;;;;;;;;;;;15.33;100.00;98950.25;5111642;28;20031;-78
2022/01/01 01:41:31;;;;;;;;;;;;;;;15.41;100.00;98948.00;5093961;28;19931;-77
2022/01/01 01:43:59;;;;;;;;;;;;;;;15.21;100.00;98948.28;5110348;28;20212;-78
2022/01/01 01:46:26;;;;;;;;;;;;;;;15.29;100.00;98938.34;5111372;28;19924;-78
2022/01/01 01:48:54;;;;;;;;;;;;;;;15.28;100.00;98939.56;5110070;28;19931;-78
2022/01/01 01:51:21;;;;;;;;;;;;;;;15.48;100.00;98950.56;5111190;28;19931;-78
2022/01/01 01:53:51;;;;;;;;;;;;;;;15.23;100.00;98942.19;5111301;28;20038;-78
2022/01/01 01:57:49;;;;;;;;;;;;;;;15.42;100.00;98925.00;5091336;28;19913;-78
2022/01/01 02:02:54;;;;;;;;;;;;;;;15.50;100.00;98915.06;5090082;28;19925;-78
2022/01/01 02:05:21;;;;;;;;;;;;;;;15.54;100.00;98904.44;5090990;28;19925;-78
2022/01/01 02:07:49;;;;;;;;;;;;;;;15.50;100.00;98909.44;5091276;28;19931;-78
2022/01/01 02:10:16;;;;;;;;;;;;;;;15.51;100.00;98905.34;5090406;28;19924;-78
2022/01/01 02:12:49;;;;;;;;;;;;;;;15.23;100.00;98903.59;5089614;28;20387;-78
2022/01/01 02:15:44;;;;;;;;;;;;;;;15.26;100.00;98890.63;5090898;28;20009;-78
2022/01/01 02:18:14;;;;;;;;;;;;;;;15.37;100.00;98907.91;5073100;28;19931;-78
2022/01/01 02:20:43;;;;;;;;;;;;;;;15.40;100.00;98892.94;5089559;28;19960;-78
2022/01/01 02:23:14;;;;;;;;;;;;;;;15.49;100.00;98902.25;5090732;28;20364;-78
2022/01/01 02:25:42;;;;;;;;;;;;;;;15.61;100.00;98898.56;5072994;28;20437;-78
2022/01/01 02:28:12;;;;;;;;;;;;;;;15.46;100.00;98916.44;5090863;28;19924;-78
2022/01/01 02:30:39;;;;;;;;;;;;;;;15.78;100.00;98918.81;5106210;28;20272;-78
2022/01/01 02:33:06;;;;;;;;;;;;;;;15.62;100.00;98914.19;5090818;28;19924;-78
2022/01/01 02:35:34;;;;;;;;;;;;;;;15.42;100.00;98919.38;5122855;28;19925;-77
2022/01/01 02:38:01;;;;;;;;;;;;;;;15.46;100.00;98914.41;5072477;28;19971;-78
2022/01/01 02:40:31;;;;;;;;;;;;;;;15.66;100.00;98917.66;5122360;28;20275;-78
2022/01/01 02:42:58;;;;;;;;;;;;;;;15.73;100.00;98917.38;5090505;28;19932;-78
2022/01/01 02:45:25;;;;;;;;;;;;;;;15.43;100.00;98909.72;5089122;28;19925;-78
2022/01/01 02:47:54;;;;;;;;;;;;;;;15.65;100.00;98907.63;5090544;28;19932;-78
2022/01/01 02:50:21;;;;;;;;;;;;;;;15.60;100.00;98902.59;5089030;28;20023;-77
2022/01/01 02:52:51;;;;;;;;;;;;;;;15.43;100.00;98892.03;5089160;28;19950;-78
2022/01/01 02:55:18;;;;;;;;;;;;;;;15.45;100.00;98890.31;5089040;28;19964;-75
2022/01/01 02:57:44;;;;;;;;;;;;;;;15.59;100.00;98892.59;5088694;28;20050;-75
2022/01/01 03:00:12;;;;;;;;;;;;;;;15.67;100.00;98879.81;5090183;28;20287;-75
2022/01/01 03:02:39;;;;;;;;;;;;;;;15.46;100.00;98883.44;5090198;28;19925;-75
2022/01/01 03:05:09;;;;;;;;;;;;;;;15.35;100.00;98891.47;5088644;28;19925;-75
2022/01/01 03:07:39;;;;;;;;;;;;;;;15.52;100.00;98887.25;5083247;28;19924;-75
2022/01/01 03:10:06;;;;;;;;;;;;;;;15.47;100.00;98875.78;5058592;28;19969;-75
2022/01/01 03:12:36;;;;;;;;;;;;;;;15.53;100.00;98874.72;5076333;28;20014;-75
2022/01/01 03:15:03;;;;;;;;;;;;;;;15.21;100.00;98863.06;5076325;28;19931;-75
2022/01/01 03:17:33;;;;;;;;;;;;;;;15.49;100.00;98868.44;5076350;28;19928;-75
2022/01/01 03:20:00;;;;;;;;;;;;;;;15.20;100.00;98862.28;5074680;28;19930;-75
2022/01/01 03:22:28;;;;;;;;;;;;;;;14.72;100.00;98871.31;5076241;28;19925;-75
2022/01/01 03:24:56;;;;;;;;;;;;;;;15.16;100.00;98867.25;5058453;28;19930;-74
2022/01/01 03:27:23;;;;;;;;;;;;;;;15.17;100.00;98868.84;5091786;28;19925;-75
2022/01/01 03:29:50;;;;;;;;;;;;;;;14.98;100.00;98857.91;5074823;28;20001;-74
2022/01/01 03:32:17;;;;;;;;;;;;;;;15.15;100.00;98857.25;5075942;28;20383;-75
2022/01/01 03:34:44;;;;;;;;;;;;;;;14.78;100.00;98844.19;5074800;28;20393;-74
2022/01/01 03:37:13;;;;;;;;;;;;;;;14.70;100.00;98851.28;5074554;28;20359;-75
2022/01/01 03:39:40;;;;;;;;;;;;;;;14.56;100.00;98851.78;5062926;28;19971;-75
2022/01/01 03:42:07;;;;;;;;;;;;;;;14.90;100.00;98848.97;5087680;28;20288;-75
2022/01/01 03:44:34;;;;;;;;;;;;;;;14.68;100.00;98836.91;5054493;28;20023;-75
2022/01/01 03:47:09;;;;;;;;;;;;;;;14.83;100.00;98842.81;5054452;28;20322;-75
2022/01/01 03:49:37;;;;;;;;;;;;;;;15.07;100.00;98841.09;5055805;28;19925;-75
2022/01/01 03:52:04;;;;;;;;;;;;;;;14.83;100.00;98831.56;5070927;28;20367;-75
2022/01/01 03:54:32;;;;;;;;;;;;;;;15.27;100.00;98827.44;5070902;28;19929;-75
2022/01/01 03:56:59;;;;;;;;;;;;;;;14.87;100.00;98816.13;5087245;28;20383;-75
2022/01/01 03:59:26;;;;;;;;;;;;;;;14.62;100.00;98827.47;5054396;28;20398;-75
2022/01/01 04:01:54;;;;;;;;;;;;;;;14.92;100.00;98817.56;5055339;28;20383;-74
2022/01/01 04:04:24;;;;;;;;;;;;;;;15.24;100.00;98792.56;5055492;28;20345;-75
2022/01/01 04:07:18;;;;;;;;;;;;;;;14.93;100.00;98805.84;5055287;28;19924;-74
2022/01/01 04:09:45;;;;;;;;;;;;;;;14.43;100.00;98798.41;5054204;28;20384;-74
2022/01/01 04:12:12;;;;;;;;;;;;;;;14.94;100.00;98798.16;5055233;28;19948;-74
2022/01/01 04:14:39;;;;;;;;;;;;;;;15.08;100.00;98783.56;5087189;28;19931;-74
2022/01/01 04:17:12;;;;;;;;;;;;;;;15.02;100.00;98789.03;5055867;28;19925;-75
2022/01/01 04:19:42;;;;;;;;;;;;;;;15.20;100.00;98797.56;5076806;28;19924;-75
2022/01/01 04:22:10;;;;;;;;;;;;;;;14.39;100.00;98792.16;5094216;28;20275;-75
2022/01/01 04:24:38;;;;;;;;;;;;;;;14.49;100.00;98795.81;5093827;28;19924;-75
2022/01/01 04:27:06;;;;;;;;;;;;;;;15.01;100.00;98804.31;5095025;28;19947;-75
2022/01/01 04:29:33;;;;;;;;;;;;;;;14.93;100.00;98797.41;5077198;28;20424;-74
2022/01/01 04:32:01;;;;;;;;;;;;;;;14.49;100.00;98779.72;5094962;28;19977;-75
2022/01/01 04:34:28;;;;;;;;;;;;;;;14.34;100.00;98795.53;5093934;28;19924;-74
2022/01/01 04:39:25;;;;;;;;;;;;;;;14.64;100.00;98791.25;5094964;28;20018;-74
2022/01/01 04:41:52;;;;;;;;;;;;;;;14.73;100.00;98796.16;5093694;28;20058;-74
2022/01/01 04:44:19;;;;;;;;;;;;;;;14.66;100.00;98794.38;5060542;28;19925;-74
2022/01/01 04:46:46;;;;;;;;;;;;;;;14.87;100.00;98792.81;5094658;28;19955;-74
2022/01/01 04:49:13;;;;;;;;;;;;;;;14.73;100.00;98804.59;5093628;28;19924;-74
2022/01/01 04:51:42;;;;;;;;;;;;;;;14.67;100.00;98798.78;5076990;28;19924;-74
2022/01/01 04:54:15;;;;;;;;;;;;;;;14.61;100.00;98799.81;5093546;28;19931;-74
2022/01/01 04:56:49;;;;;;;;;;;;;;;14.65;100.00;98806.88;5059696;28;19924;-74
2022/01/01 04:59:19;;;;;;;;;;;;;;;14.72;100.00;98792.56;5094509;28;19925;-77
2022/01/01 05:01:46;;;;;;;;;;;;;;;14.86;100.00;98780.78;5076474;28;19962;-77
2022/01/01 05:04:13;;;;;;;;;;;;;;;14.94;100.00;98787.72;5094546;28;19924;-78
2022/01/01 05:06:48;;;;;;;;;;;;;;;14.84;100.00;98788.91;5076854;28;19924;-78
2022/01/01 05:09:16;;;;;;;;;;;;;;;14.82;100.00;98771.69;5093902;28;20034;-78
2022/01/01 05:11:45;;;;;;;;;;;;;;;14.96;100.00;98779.59;5094357;28;19924;-78
2022/01/01 05:14:13;;;;;;;;;;;;;;;14.81;100.00;98750.44;5093056;28;19924;-77
2022/01/01 05:16:42;;;;;;;;;;;;;;;14.82;100.00;98770.91;5092858;28;20428;-77
2022/01/01 05:19:09;;;;;;;;;;;;;;;15.03;100.00;98758.84;5094075;28;19924;-78
2022/01/01 05:21:36;;;;;;;;;;;;;;;14.86;100.00;98741.41;5094234;28;20026;-78
2022/01/01 05:24:04;;;;;;;;;;;;;;;14.55;100.00;98765.88;5094001;28;20031;-78
2022/01/01 05:26:32;;;;;;;;;;;;;;;14.54;100.00;98755.88;5094092;28;20386;-75
2022/01/01 05:28:59;;;;;;;;;;;;;;;14.47;100.00;98764.56;5092716;28;19924;-74
2022/01/01 05:31:33;;;;;;;;;;;;;;;14.37;100.00;98737.63;5093706;28;19924;-75
2022/01/01 05:34:00;;;;;;;;;;;;;;;14.69;100.00;98723.19;5094034;28;19927;-75
2022/01/01 05:36:27;;;;;;;;;;;;;;;14.43;100.00;98716.13;5092636;28;19971;-75
2022/01/01 05:38:54;;;;;;;;;;;;;;;14.48;100.00;98738.81;5093864;28;19924;-75
2022/01/01 05:41:21;;;;;;;;;;;;;;;14.76;100.00;98736.97;5094030;28;19977;-77
2022/01/01 05:43:49;;;;;;;;;;;;;;;14.67;100.00;98736.91;5092313;28;20355;-77
2022/01/01 05:46:16;;;;;;;;;;;;;;;14.91;100.00;98749.25;5092621;28;20019;-78
2022/01/01 05:48:43;;;;;;;;;;;;;;;14.72;100.00;98708.22;5092702;28;20291;-77
2022/01/01 05:51:10;;;;;;;;;;;;;;;14.71;100.00;98711.47;5092546;28;20019;-77
2022/01/01 05:53:38;;;;;;;;;;;;;;;14.23;100.00;98705.22;5093885;28;19935;-78
2022/01/01 05:56:05;;;;;;;;;;;;;;;14.30;100.00;98706.97;5093622;28;19924;-77
2022/01/01 05:58:32;;;;;;;;;;;;;;;14.27;100.00;98716.31;5075261;28;19928;-75
2022/01/01 06:00:59;;;;;;;;;;;;;;;14.67;100.00;98691.94;5092418;28;19925;-75
2022/01/01 06:03:31;;;;;;;;;;;;;;;14.45;100.00;98716.44;5092658;28;19924;-75
2022/01/01 06:07:42;;;;;;;;;;;;;;;14.38;100.00;98677.38;5090893;28;19916;-77
2022/01/01 06:10:09;;;;;;;;;;;;;;;14.59;100.00;98681.38;5090077;28;19924;-77
2022/01/01 06:12:38;;;;;;;;;;;;;;;14.75;100.00;98690.41;5123934;28;19924;-75
2022/01/01 06:15:05;;;;;;;;;;;;;;;14.40;100.00;98677.69;5090758;28;20019;-74
2022/01/01 06:17:34;;;;;;;;;;;;;;;14.39;100.00;98676.91;5055982;28;19925;-74
2022/01/01 06:20:02;;;;;;;;;;;;;;;14.63;100.00;98677.19;5089501;28;19956;-75
2022/01/01 06:22:29;;;;;;;;;;;;;;;14.92;100.00;98683.28;5089423;28;19924;-75
2022/01/01 06:24:57;;;;;;;;;;;;;;;14.01;100.00;98644.59;5089153;28;20020;-75
2022/01/01 06:27:24;;;;;;;;;;;;;;;14.74;100.00;98666.34;5090485;28;20017;-74
2022/01/01 06:29:52;;;;;;;;;;;;;;;14.59;100.00;98623.16;5091000;28;20329;-74
2022/01/01 06:32:19;;;;;;;;;;;;;;;14.49;100.00;98644.03;5090808;28;20492;-77
2022/01/01 06:34:49;;;;;;;;;;;;;;;14.63;100.00;98665.19;5091008;28;19925;-78
2022/01/01 06:37:16;;;;;;;;;;;;;;;14.67;100.00;98694.75;5123284;28;19939;-78
2022/01/01 06:39:43;;;;;;;;;;;;;;;14.25;100.00;98657.00;5089524;28;19928;-77
2022/01/01 06:42:10;;;;;;;;;;;;;;;14.80;100.00;98636.38;5089413;28;19928;-77
2022/01/01 06:44:37;;;;;;;;;;;;;;;14.41;100.00;98631.47;5089349;28;20397;-78
2022/01/01 06:47:04;;;;;;;;;;;;;;;14.97;100.00;98634.09;5089171;28;20013;-78
2022/01/01 06:49:35;;;;;;;;;;;;;;;14.90;100.00;98640.81;5072790;28;19924;-78
2022/01/01 06:52:05;;;;;;;;;;;;;;;14.83;100.00;98657.94;5073019;28;19925;-78
2022/01/01 06:54:32;;;;;;;;;;;;;;;14.62;100.00;98636.28;5090589;28;19954;-78
2022/01/01 06:56:59;;;;;;;;;;;;;;;14.17;100.00;98627.56;5090226;28;19931;-78
2022/01/01 06:59:26;;;;;;;;;;;;;;;14.33;100.00;98635.78;5122877;28;19928;-78
2022/01/01 07:01:56;;;;;;;;;;;;;;;14.19;100.00;98599.78;5090428;28;19931;-77
2022/01/01 07:04:23;;;;;;;;;;;;;;;14.81;100.00;98632.34;5089042;28;19931;-78
2022/01/01 07:06:50;;;;;;;;;;;;;;;14.94;100.00;98649.09;5071877;28;20375;-77
2022/01/01 07:09:17;;;;;;;;;;;;;;;15.01;100.00;98641.13;5088920;28;20023;-75
2022/01/01 07:11:44;;;;;;;;;;;;;;;14.08;100.00;98621.88;5088779;28;19934;-74
2022/01/01 07:14:14;;;;;;;;;;;;;;;14.59;100.00;98630.78;5106155;28;19924;-74
2022/01/01 07:16:42;;;;;;;;;;;;;;;14.37;100.00;98616.78;5090063;28;19931;-75
2022/01/01 07:19:08;;;;;;;;;;;;;;;14.40;100.00;98621.50;5076115;28;19931;-74
2022/01/01 07:21:35;;;;;;;;;;;;;;;14.60;100.00;98602.22;5108795;28;19968;-74
2022/01/01 07:24:03;;;;;;;;;;;;;;;14.74;100.00;98603.72;5042037;28;19925;-75
2022/01/01 07:26:32;;;;;;;;;;;;;;;14.95;100.00;98585.97;5075018;28;20253;-74
2022/01/01 07:28:59;;;;;;;;;;;;;;;14.65;100.00;98579.13;5075373;28;20011;-74
2022/01/01 07:31:27;;;;;;;;;;;;;;;14.49;100.00;98593.44;5076353;28;19962;-74
2022/01/01 07:33:54;;;;;;;;;;;;;;;14.56;100.00;98592.34;5075053;28;19929;-74
2022/01/01 07:36:21;;;;;;;;;;;;;;;14.37;100.00;98595.06;5076160;28;19924;-75
2022/01/01 07:38:48;;;;;;;;;;;;;;;14.40;100.00;98610.25;5091592;28;19974;-75
2022/01/01 07:41:15;;;;;;;;;;;;;;;14.51;100.00;98590.91;5091777;28;19960;-75
2022/01/01 07:43:42;;;;;;;;;;;;;;;14.29;100.00;98604.25;5076136;28;19924;-74
2022/01/01 07:46:09;;;;;;;;;;;;;;;13.85;100.00;98611.88;5075258;28;19924;-77
2022/01/01 07:48:36;;;;;;;;;;;;;;;14.24;100.00;98616.06;5074725;28;19931;-77
2022/01/01 07:51:03;;;;;;;;;;;;;;;13.87;100.00;98634.66;5075910;28;20017;-75
2022/01/01 07:53:30;;;;;;;;;;;;;;;13.95;100.00;98657.66;5049833;28;19951;-78
2022/01/01 07:56:00;;;;;;;;;;;;;;;14.45;100.00;98618.06;5054873;28;20030;-79
2022/01/01 07:58:27;;;;;;;;;;;;;;;14.51;100.00;98666.81;5042508;28;19924;-78
2022/01/01 08:00:54;;;;;;;;;;;;;;;14.28;100.00;98648.41;5075871;28;20280;-78
2022/01/01 08:03:22;;;;;;;;;;;;;;;14.40;100.00;98649.59;5075662;28;20253;-78
2022/01/01 08:05:49;;;;;;;;;;;;;;;14.36;100.00;98651.75;5075294;28;19928;-79
2022/01/01 08:08:16;;;;;;;;;;;;;;;14.24;100.00;98628.09;5075465;28;19978;-78
2022/01/01 08:10:43;;;;;;;;;;;;;;;14.82;100.00;98638.72;5075729;28;20333;-76
2022/01/01 08:13:21;;;;;;;;;;;;;;;14.48;100.00;98628.38;5075649;28;19951;-76
2022/01/01 08:15:49;;;;;;;;;;;;;;;14.57;100.00;98650.94;5075613;28;20019;-74
2022/01/01 08:18:16;;;;;;;;;;;;;;;13.70;100.00;98616.44;5057531;28;19973;-74
2022/01/01 08:20:44;;;;;;;;;;;;;;;14.08;100.00;98625.47;5091029;28;20383;-77
2022/01/01 08:23:11;;;;;;;;;;;;;;;14.17;100.00;98614.28;5074110;28;19924;-77
2022/01/01 08:25:39;;;;;;;;;;;;;;;14.22;100.00;98607.31;5074193;28;19924;-77
2022/01/01 08:28:06;;;;;;;;;;;;;;;14.21;100.00;98606.50;5074006;28;20264;-77
2022/01/01 08:30:37;;;;;;;;;;;;;;;14.19;100.00;98596.97;5073132;28;20260;-77
2022/01/01 08:33:04;;;;;;;;;;;;;;;13.85;100.00;98602.66;5075130;28;20383;-78
2022/01/01 08:35:32;;;;;;;;;;;;;;;14.37;100.00;98611.16;5075224;28;19932;-78
2022/01/01 08:38:00;;;;;;;;;;;;;;;14.06;100.00;98599.06;5057405;28;19925;-77
2022/01/01 08:40:27;;;;;;;;;;;;;;;14.15;100.00;98607.56;5075055;28;19924;-77
2022/01/01 08:42:58;;;;;;;;;;;;;;;14.16;100.00;98623.19;5057425;28;19978;-78
2022/01/01 08:45:31;;;;;;;;;;;;;;;14.34;100.00;98614.91;5072759;28;19928;-78
2022/01/01 08:47:58;;;;;;;;;;;;;;;14.56;100.00;98626.09;5073621;28;19925;-77
2022/01/01 08:50:25;;;;;;;;;;;;;;;14.37;100.00;98608.34;5073757;28;20322;-77
2022/01/01 08:52:57;;;;;;;;;;;;;;;14.65;100.00;98596.00;5074742;28;19925;-78
2022/01/01 08:55:25;;;;;;;;;;;;;;;14.81;100.00;98603.41;5074923;28;20057;-78
2022/01/01 08:57:57;;;;;;;;;;;;;;;14.14;100.00;98600.38;5073585;28;19924;-75
2022/01/01 09:01:17;;;;;;;;;;;;;;;14.32;100.00;98600.50;5074475;28;19925;-75
2022/01/01 09:04:16;;;;;;;;;;;;;;;14.62;100.00;98601.75;5074362;28;20294;-75
2022/01/01 09:06:45;;;;;;;;;;;;;;;14.39;100.00;98591.78;5056430;28;19935;-75
2022/01/01 09:09:15;;;;;;;;;;;;;;;13.94;100.00;98578.22;5073266;28;19974;-74
2022/01/01 09:11:42;;;;;;;;;;;;;;;14.41;100.00;98575.28;5090132;28;19924;-77
2022/01/01 09:14:10;;;;;;;;;;;;;;;14.03;100.00;98557.84;5073344;28;19924;-78
2022/01/01 09:16:39;;;;;;;;;;;;;;;14.17;100.00;98560.91;5073055;28;19924;-77
2022/01/01 09:19:06;;;;;;;;;;;;;;;14.56;100.00;98587.53;5074652;28;19932;-78
2022/01/01 09:21:33;;;;;;;;;;;;;;;14.52;100.00;98564.41;5072974;28;20283;-74
2022/01/01 09:24:00;;;;;;;;;;;;;;;14.37;100.00;98561.34;5073200;28;20332;-74
2022/01/01 09:26:34;;;;;;;;;;;;;;;14.30;100.00;98558.81;5073044;28;19956;-74
2022/01/01 09:29:02;;;;;;;;;;;;;;;14.42;100.00;98559.97;5072797;28;19974;-74
2022/01/01 09:31:30;;;;;;;;;;;;;;;14.88;100.00;98563.75;5056392;28;19928;-74
2022/01/01 09:34:22;;;;;;;;;;;;;;;15.22;100.00;98550.22;5073168;28;19931;-74
2022/01/01 09:36:51;;;;;;;;;;;;;;;14.90;100.00;98539.53;5074004;28;19924;-74
2022/01/01 09:39:18;;;;;;;;;;;;;;;15.29;100.00;98555.56;5072126;28;20050;-75
2022/01/01 09:41:47;;;;;;;;;;;;;;;15.70;100.00;98557.00;5073727;28;19968;-75
2022/01/01 09:44:35;;;;;;;;;;;;;;;15.27;100.00;98579.78;5112119;27;19919;-78
2022/01/01 09:47:02;;;;;;;;;;;;;;;15.31;100.00;98574.78;5111578;28;19978;-78
2022/01/01 09:49:29;;;;;;;;;;;;;;;15.07;100.00;98573.81;5093234;28;20010;-78
2022/01/01 09:51:56;;;;;;;;;;;;;;;15.52;100.00;98597.22;5111685;28;20010;-77
2022/01/01 09:54:23;;;;;;;;;;;;;;;15.65;100.00;98582.97;5107691;28;19924;-77
2022/01/01 09:56:51;;;;;;;;;;;;;;;15.42;100.00;98603.31;5115984;27;19955;-74
2022/01/01 09:59:18;;;;;;;;;;;;;;;15.16;100.00;98577.41;5082668;28;19924;-74
2022/01/01 10:01:46;;;;;;;;;;;;;;;15.19;100.00;98584.91;5089268;28;20545;-74
2022/01/01 10:04:13;;;;;;;;;;;;;;;15.22;100.00;98595.25;5096653;28;19954;-74
2022/01/01 10:06:41;;;;;;;;;;;;;;;15.57;100.00;98576.88;5080331;28;19932;-74
2022/01/01 10:09:09;;;;;;;;;;;;;;;15.25;100.00;98571.78;5095863;28;19931;-74
2022/01/01 10:11:37;;;;;;;;;;;;;;;15.22;100.00;98571.97;5077871;28;19924;-74
2022/01/01 10:14:07;;;;;;;;;;;;;;;15.19;100.00;98568.03;5103081;28;19924;-75
2022/01/01 10:16:42;;;;;;;;;;;;;;;15.50;100.00;98553.88;5096139;28;20448;-75
2022/01/01 10:19:09;;;;;;;;;;;;;;;14.53;100.00;98549.09;5103016;28;19924;-74
2022/01/01 10:21:40;;;;;;;;;;;;;;;15.09;100.00;98555.19;5081844;28;20364;-75
2022/01/01 10:24:13;;;;;;;;;;;;;;;15.12;100.00;98562.72;5094091;28;20402;-74
2022/01/01 10:29:29;;;;;;;;;;;;;;;15.29;100.00;98566.81;5101347;28;19931;-74
2022/01/01 10:32:00;;;;;;;;;;;;;;;15.65;100.00;98577.34;5105763;28;19927;-74
2022/01/01 10:34:34;;;;;;;;;;;;;;;15.44;100.00;98579.06;5106779;28;20919;-74
2022/01/01 10:37:08;;;;;;;;;;;;;;;15.63;100.00;98586.25;5089012;28;19931;-74
2022/01/01 10:39:47;;;;;;;;;;;;;;;15.75;100.00;98599.41;5088183;28;20014;-75
2022/01/01 10:42:17;;;;;;;;;;;;;;;15.46;100.00;98587.03;5106270;28;20294;-75
2022/01/01 10:44:51;;;;;;;;;;;;;;;15.30;100.00;98573.22;5106711;28;19931;-74
2022/01/01 10:47:29;;;;;;;;;;;;;;;15.22;100.00;98572.72;5104025;28;19928;-74
2022/01/01 10:50:15;;;;;;;;;;;;;;;15.48;100.00;98588.13;5099319;28;19974;-74
2022/01/01 10:52:45;;;;;;;;;;;;;;;15.41;100.00;98599.69;5108889;28;19998;-74
2022/01/01 10:55:13;;;;;;;;;;;;;;;15.35;100.00;98590.28;5092611;28;19931;-74
2022/01/01 10:57:55;;;;;;;;;;;;;;;15.70;100.00;98590.81;5072827;28;19928;-74
2022/01/01 11:00:23;;;;;;;;;;;;;;;15.65;100.00;98583.75;5073097;28;19963;-74
2022/01/01 11:02:51;;;;;;;;;;;;;;;15.75;100.00;98582.50;5072251;28;19924;-74
2022/01/01 11:10:09;;;;;;;;;;;;;;;16.35;100.00;98584.63;5092719;28;19923;-75
2022/01/01 11:12:37;;;;;;;;;;;;;;;16.04;100.00;98576.38;5093154;28;19932;-74
2022/01/01 11:15:37;;;;;;;;;;;;;;;15.28;100.00;98587.75;5067399;28;19963;-76
2022/01/01 11:18:07;;;;;;;;;;;;;;;15.82;100.00;98599.13;5065714;28;19932;-77
2022/01/01 11:20:35;;;;;;;;;;;;;;;15.63;100.00;98582.69;5066726;28;19924;-77
2022/01/01 11:23:03;;;;;;;;;;;;;;;15.70;100.00;98573.91;5068555;28;20392;-77
2022/01/01 11:25:31;;;;;;;;;;;;;;;15.18;100.00;98576.94;5063133;28;20019;-77
2022/01/01 11:27:59;;;;;;;;;;;;;;;15.48;100.00;98599.38;5063104;28;19931;-77
2022/01/01 11:30:28;;;;;;;;;;;;;;;15.34;100.00;98574.63;5064977;28;20022;-77
2022/01/01 11:33:07;;;;;;;;;;;;;;;15.20;100.00;98592.13;5066008;28;19928;-76
2022/01/01 11:35:39;;;;;;;;;;;;;;;15.45;100.00;98563.72;5064005;28;19931;-78
2022/01/01 11:38:09;;;;;;;;;;;;;;;15.33;100.00;98567.44;5062357;28;19932;-77
2022/01/01 11:40:41;;;;;;;;;;;;;;;15.10;100.00;98570.84;5047324;28;20018;-77
2022/01/01 11:43:30;;;;;;;;;;;;;;;15.41;100.00;98580.00;5064568;28;19928;-77
2022/01/01 11:45:59;;;;;;;;;;;;;;;15.41;100.00;98579.19;5065535;28;19924;-77
2022/01/01 11:48:26;;;;;;;;;;;;;;;15.85;100.00;98572.03;5048419;28;19928;-76
2022/01/01 11:50:54;;;;;;;;;;;;;;;15.60;100.00;98570.31;5065466;28;20311;-77
2022/01/01 11:53:31;;;;;;;;;;;;;;;15.82;100.00;98579.41;5067237;28;20046;-75
2022/01/01 11:56:12;;;;;;;;;;;;;;;15.85;100.00;98578.44;5065738;28;19928;-76
2022/01/01 11:58:47;;;;;;;;;;;;;;;15.48;100.00;98557.16;5059949;28;19936;-77
2022/01/01 12:01:16;;;;;;;;;;;;;;;15.40;100.00;98563.56;5065868;28;19924;-77
2022/01/01 12:03:48;;;;;;;;;;;;;;;15.56;100.00;98555.59;5062451;28;20326;-77
2022/01/01 12:06:15;;;;;;;;;;;;;;;15.48;100.00;98567.66;5066448;28;20473;-78
2022/01/01 12:08:46;;;;;;;;;;;;;;;15.61;100.00;98568.28;5064192;28;20299;-77
2022/01/01 12:11:34;;;;;;;;;;;;;;;15.38;100.00;98568.88;5066579;28;19925;-77
2022/01/01 12:14:02;;;;;;;;;;;;;;;15.23;100.00;98557.44;5064378;28;19978;-77
2022/01/01 12:16:29;;;;;;;;;;;;;;;15.58;100.00;98563.59;5064937;28;19925;-74
2022/01/01 12:19:02;;;;;;;;;;;;;;;15.61;100.00;98548.56;5065616;28;20571;-74
2022/01/01 12:21:37;;;;;;;;;;;;;;;15.67;100.00;98546.69;5066201;28;20390;-74
2022/01/01 12:24:08;;;;;;;;;;;;;;;15.59;100.00;98551.06;5048023;28;19925;-74
2022/01/01 12:26:35;;;;;;;;;;;;;;;15.56;100.00;98535.91;5053517;28;19929;-77
2022/01/01 12:29:06;;;;;;;;;;;;;;;15.56;100.00;98537.91;5053341;28;19925;-76
2022/01/01 12:31:34;;;;;;;;;;;;;;;15.78;100.00;98536.50;5052722;28;20541;-76
2022/01/01 12:34:08;;;;;;;;;;;;;;;15.36;100.00;98520.69;5061829;28;19956;-76
2022/01/01 12:36:45;;;;;;;;;;;;;;;15.58;100.00;98526.97;5068788;28;19929;-76
2022/01/01 12:39:12;;;;;;;;;;;;;;;15.54;100.00;98527.13;5072617;28;20395;-76
2022/01/01 12:41:40;;;;;;;;;;;;;;;15.39;100.00;98543.06;5058444;28;20517;-76
2022/01/01 12:44:15;;;;;;;;;;;;;;;15.62;100.00;98539.66;5047948;28;20437;-77
2022/01/01 12:46:46;;;;;;;;;;;;;;;15.50;100.00;98518.06;5049134;28;19932;-77
2022/01/01 12:49:14;;;;;;;;;;;;;;;15.62;100.00;98522.75;5055509;28;19929;-74
2022/01/01 12:51:41;;;;;;;;;;;;;;;15.92;100.00;98530.22;5049967;28;19928;-73
2022/01/01 12:54:12;;;;;;;;;;;;;;;15.47;100.00;98533.09;5057662;28;19943;-74
2022/01/01 12:56:40;;;;;;;;;;;;;;;15.53;100.00;98527.59;5053404;28;19928;-74
2022/01/01 12:59:10;;;;;;;;;;;;;;;15.50;100.00;98509.63;5049786;28;19971;-73
2022/01/01 13:01:44;;;;;;;;;;;;;;;15.93;100.00;98520.50;5066255;28;19932;-73
2022/01/01 13:04:12;;;;;;;;;;;;;;;15.70;100.00;98529.63;5074088;28;20015;-74
2022/01/01 13:06:43;;;;;;;;;;;;;;;15.93;100.00;98509.25;5058155;28;20279;-74